Weather at Dyersburg Regional Airport

Public forecast

Using degrees Fahrenheit for public forecast. Weather courtesy of forecast.io.

Current aviation weather report (METAR) for Dyersburg Regional Airport

Retrieved 2021/07/27 07:56 UTC (42 minutes ago):

KDYR 270756Z AUTO 00000KT 10SM CLR 24/24 A2999 RMK AO2 SLP156 T02440244

Closest aviation forecast (TAF) to Dyersburg Regional Airport

Closest forecast is McKellar-Sipes Regional Airport, 33.8 nm (62.6 km) SE. Retrieved 2021/07/27 06:22 UTC (2 hours ago):

TAF KMKL 270520Z 2706/2806 08003KT P6SM SCT250 FM271000 00000KT 3SM BR SCT250 TEMPO 2710/2713 1/4SM FG BKN002 FM271300 VRB03KT P6SM SCT002 FM271400 VRB03KT P6SM SCT100